Bismarck, North Dakota
Current Conditions -  °F | °C
As of 4:52 AM on Monday 29 Dec 2014 (Local Time) from KBIS Reporting Station
Few Clouds Few Clouds  
Wind Chill: -31°   Ceiling: Unl
Heat Index: -21°   Visibility: 10mi
Dew Point: -24°   Wind: 10mph
Humidity: 75%   Direction: 360°N
Pressure: 30.57"   Gusts: NA
Location:  46.81°N, 100.77°W
Report Text: KBIS 291052Z AUTO 36009KT 10SM FEW090 M21/M24 A3057 RMK AO2 SLP399 T12111244
Loading
Personal Weather Stations






























Interactive Weather Map New forecast layout! Learn more

10-Day Weather Forecast

Advertisements
Track Severe Weather on mobile